Time;durP1;ratioP1;P1;durP2;ratioP2;P2;SDS_P1;SDS_P2;PMS_P1;PMS_P2;Temp;Humidity;BMP_temperature;BMP_pressure;BME280_temperature;BME280_humidity;BME280_pressure;Samples;Min_cycle;Max_cycle;Signal;HPM_P1;HPM_P2
2021/10/06 00:01:01;;;;;;;5.45;1.08;;;;;;;;;;5029019;28;20076;-53
2021/10/06 00:03:28;;;;;;;4.80;0.98;;;;;;;;;;5021973;28;20048;-53
2021/10/06 00:05:54;;;;;;;2.33;1.00;;;;;;;;;;5027942;28;20092;-54
2021/10/06 00:08:21;;;;;;;2.47;0.90;;;;;;;;;;5026933;28;20061;-51
2021/10/06 00:10:48;;;;;;;5.55;0.98;;;;;;;;;;5029542;28;20045;-54
2021/10/06 00:13:15;;;;;;;2.90;1.35;;;;;;;;;;5017014;28;20053;-54
2021/10/06 00:15:43;;;;;;;3.42;0.82;;;;;;;;;;5027770;28;20509;-54
2021/10/06 00:18:10;;;;;;;2.78;1.00;;;;;;;;;;5019912;28;20095;-53
2021/10/06 00:20:37;;;;;;;2.00;0.90;;;;;;;;;;5026471;28;20033;-52
2021/10/06 00:23:04;;;;;;;1.35;0.75;;;;;;;;;;5017151;28;20049;-54
2021/10/06 00:25:31;;;;;;;2.75;0.95;;;;;;;;;;5024784;28;20073;-53
2021/10/06 00:27:58;;;;;;;1.48;0.90;;;;;;;;;;5027055;28;20041;-54
2021/10/06 00:30:25;;;;;;;2.17;0.80;;;;;;;;;;5011023;28;20041;-54
2021/10/06 00:32:52;;;;;;;2.55;1.00;;;;;;;;;;5032180;28;20125;-54
2021/10/06 00:35:19;;;;;;;2.50;0.80;;;;;;;;;;5030772;28;20045;-55
2021/10/06 00:37:46;;;;;;;4.10;0.80;;;;;;;;;;5030792;28;20095;-54
2021/10/06 00:40:13;;;;;;;3.33;0.80;;;;;;;;;;5029648;28;20449;-54
2021/10/06 00:42:40;;;;;;;3.63;1.13;;;;;;;;;;5029860;28;20367;-55
2021/10/06 00:45:07;;;;;;;1.85;0.85;;;;;;;;;;5031760;28;20084;-54
2021/10/06 00:47:33;;;;;;;3.40;0.98;;;;;;;;;;5031747;28;20095;-54
2021/10/06 00:50:00;;;;;;;3.67;0.90;;;;;;;;;;5029621;28;20057;-52
2021/10/06 00:52:27;;;;;;;4.25;2.05;;;;;;;;;;5029456;28;20394;-53
2021/10/06 00:54:53;;;;;;;2.83;1.13;;;;;;;;;;5031794;28;20075;-54
2021/10/06 00:57:20;;;;;;;4.00;1.58;;;;;;;;;;5032387;28;20099;-53
2021/10/06 00:59:47;;;;;;;2.70;0.95;;;;;;;;;;5031417;28;20099;-53
2021/10/06 01:02:14;;;;;;;3.78;1.00;;;;;;;;;;5028905;28;20044;-54
2021/10/06 01:04:40;;;;;;;1.00;0.75;;;;;;;;;;5029073;28;20045;-55
2021/10/06 01:07:07;;;;;;;5.82;0.90;;;;;;;;;;5019439;28;20432;-54
2021/10/06 01:09:35;;;;;;;2.78;0.95;;;;;;;;;;5022636;28;20033;-53
2021/10/06 01:12:02;;;;;;;4.57;0.80;;;;;;;;;;5030306;28;20049;-53
2021/10/06 01:14:29;;;;;;;2.58;0.90;;;;;;;;;;5031244;28;20075;-52
2021/10/06 01:16:56;;;;;;;2.47;0.88;;;;;;;;;;5031112;28;20049;-54
2021/10/06 01:19:24;;;;;;;3.67;0.90;;;;;;;;;;5028556;28;20124;-53
2021/10/06 01:21:52;;;;;;;2.00;0.90;;;;;;;;;;5027476;28;20561;-53
2021/10/06 01:24:19;;;;;;;1.30;0.80;;;;;;;;;;5029260;28;20457;-53
2021/10/06 01:26:46;;;;;;;3.10;0.90;;;;;;;;;;5031282;28;20037;-55
2021/10/06 01:29:14;;;;;;;1.80;0.93;;;;;;;;;;5025813;28;20066;-54
2021/10/06 01:31:45;;;;;;;5.25;0.90;;;;;;;;;;5018361;28;20133;-53
2021/10/06 01:34:12;;;;;;;7.43;1.55;;;;;;;;;;5030584;28;20040;-53
2021/10/06 01:36:39;;;;;;;5.65;0.85;;;;;;;;;;5031405;28;20033;-54
2021/10/06 01:39:07;;;;;;;4.45;0.82;;;;;;;;;;5024708;28;20095;-53
2021/10/06 01:41:34;;;;;;;1.67;0.80;;;;;;;;;;5030650;28;20045;-54
2021/10/06 01:44:01;;;;;;;1.73;0.90;;;;;;;;;;5028365;28;20043;-55
2021/10/06 01:46:29;;;;;;;0.85;0.77;;;;;;;;;;5025598;28;20045;-54
2021/10/06 01:48:56;;;;;;;4.00;0.95;;;;;;;;;;5025276;28;20041;-53
2021/10/06 01:51:25;;;;;;;9.10;1.30;;;;;;;;;;5025863;28;20526;-54
2021/10/06 01:53:52;;;;;;;3.42;0.82;;;;;;;;;;5030135;28;20041;-53
2021/10/06 01:56:19;;;;;;;4.63;0.88;;;;;;;;;;5029127;28;20087;-50
2021/10/06 01:58:46;;;;;;;1.00;0.80;;;;;;;;;;5031097;28;20069;-55
2021/10/06 02:01:13;;;;;;;4.40;1.42;;;;;;;;;;5027393;28;20470;-54
2021/10/06 02:03:40;;;;;;;1.98;0.90;;;;;;;;;;5027428;28;20037;-54
2021/10/06 02:06:07;;;;;;;1.83;1.13;;;;;;;;;;5030193;28;20054;-54
2021/10/06 02:08:34;;;;;;;4.45;1.05;;;;;;;;;;5029960;28;20072;-54
2021/10/06 02:11:00;;;;;;;3.58;0.80;;;;;;;;;;5030588;28;20088;-54
2021/10/06 02:13:27;;;;;;;4.32;1.00;;;;;;;;;;5029306;28;20046;-54
2021/10/06 02:15:54;;;;;;;4.10;2.17;;;;;;;;;;5029500;28;20045;-53
2021/10/06 02:18:21;;;;;;;10.90;1.77;;;;;;;;;;5027893;28;20099;-54
2021/10/06 02:20:48;;;;;;;2.78;1.00;;;;;;;;;;5029275;28;20061;-52
2021/10/06 02:23:15;;;;;;;6.72;1.80;;;;;;;;;;5029442;28;20537;-54
2021/10/06 02:25:41;;;;;;;2.72;0.95;;;;;;;;;;5024661;28;20427;-53
2021/10/06 02:28:08;;;;;;;2.38;0.90;;;;;;;;;;5019546;28;20067;-52
2021/10/06 02:30:35;;;;;;;13.27;1.10;;;;;;;;;;5022569;28;20660;-53
2021/10/06 02:33:02;;;;;;;4.15;1.42;;;;;;;;;;5026136;28;20377;-54
2021/10/06 02:35:29;;;;;;;6.88;1.15;;;;;;;;;;5030115;28;20076;-53
2021/10/06 02:37:55;;;;;;;3.97;1.00;;;;;;;;;;5027151;28;20113;-54
2021/10/06 02:40:22;;;;;;;2.22;0.90;;;;;;;;;;5024892;28;20390;-52
2021/10/06 02:42:49;;;;;;;1.92;1.00;;;;;;;;;;5028872;28;20088;-54
2021/10/06 02:45:18;;;;;;;2.92;1.08;;;;;;;;;;5028221;28;20552;-54
2021/10/06 02:47:46;;;;;;;0.90;0.90;;;;;;;;;;5028199;28;20987;-54
2021/10/06 02:50:15;;;;;;;5.78;0.90;;;;;;;;;;5030279;28;20088;-54
2021/10/06 02:52:41;;;;;;;3.35;0.90;;;;;;;;;;5029719;28;20145;-52
2021/10/06 02:55:08;;;;;;;4.47;1.08;;;;;;;;;;5017261;28;20038;-54
2021/10/06 02:57:35;;;;;;;4.45;0.88;;;;;;;;;;5027393;28;20084;-54
2021/10/06 03:00:07;;;;;;;3.90;0.80;;;;;;;;;;5028469;28;20077;-54
2021/10/06 03:02:34;;;;;;;2.22;0.80;;;;;;;;;;5028803;28;20075;-54
2021/10/06 03:05:01;;;;;;;2.10;0.80;;;;;;;;;;5028423;28;20441;-54
2021/10/06 03:07:27;;;;;;;1.20;0.80;;;;;;;;;;5021367;28;20567;-54
2021/10/06 03:09:54;;;;;;;1.90;1.25;;;;;;;;;;5025275;28;20034;-53
2021/10/06 03:12:21;;;;;;;2.30;0.80;;;;;;;;;;5020999;28;20069;-53
2021/10/06 03:14:48;;;;;;;2.15;0.95;;;;;;;;;;5029795;28;20045;-54
2021/10/06 03:17:14;;;;;;;2.03;0.80;;;;;;;;;;5028481;28;20088;-54
2021/10/06 03:19:41;;;;;;;3.75;1.08;;;;;;;;;;5028456;28;20704;-54
2021/10/06 03:22:08;;;;;;;4.13;0.90;;;;;;;;;;5023429;28;20038;-54
2021/10/06 03:24:35;;;;;;;4.20;0.85;;;;;;;;;;5028065;28;20037;-54
2021/10/06 03:27:02;;;;;;;4.13;1.50;;;;;;;;;;5018717;28;20034;-52
2021/10/06 03:29:29;;;;;;;1.00;0.90;;;;;;;;;;5028796;28;20033;-54
2021/10/06 03:31:55;;;;;;;2.13;0.90;;;;;;;;;;5029433;28;20120;-54
2021/10/06 03:34:22;;;;;;;0.90;0.90;;;;;;;;;;5030331;28;20038;-53
2021/10/06 03:36:49;;;;;;;5.30;0.85;;;;;;;;;;5023302;28;20053;-54
2021/10/06 03:39:15;;;;;;;4.82;0.98;;;;;;;;;;5023731;28;20136;-54
2021/10/06 03:41:42;;;;;;;2.97;0.90;;;;;;;;;;5026851;28;20406;-51
2021/10/06 03:44:09;;;;;;;3.30;0.85;;;;;;;;;;5026945;28;20092;-54
2021/10/06 03:46:35;;;;;;;4.13;0.90;;;;;;;;;;5030055;28;20124;-54
2021/10/06 03:49:02;;;;;;;9.35;1.17;;;;;;;;;;5028377;28;20561;-54
2021/10/06 03:51:29;;;;;;;1.10;0.90;;;;;;;;;;5018536;28;20464;-54
2021/10/06 03:53:56;;;;;;;2.10;1.23;;;;;;;;;;5026245;28;20534;-54
2021/10/06 03:56:24;;;;;;;3.85;1.33;;;;;;;;;;5026858;28;20504;-54
2021/10/06 03:58:51;;;;;;;2.58;1.60;;;;;;;;;;5029379;28;20049;-54
2021/10/06 04:01:17;;;;;;;1.75;1.10;;;;;;;;;;5027359;28;20042;-54
2021/10/06 04:03:44;;;;;;;1.95;1.08;;;;;;;;;;5013402;28;20085;-52
2021/10/06 04:06:11;;;;;;;4.10;0.80;;;;;;;;;;5023961;28;20045;-53
2021/10/06 04:08:38;;;;;;;8.60;1.20;;;;;;;;;;5020869;28;20029;-55
2021/10/06 04:11:05;;;;;;;2.88;1.15;;;;;;;;;;5026125;28;20044;-54
2021/10/06 04:13:31;;;;;;;5.05;1.48;;;;;;;;;;5025586;28;20037;-54
2021/10/06 04:15:58;;;;;;;2.60;0.90;;;;;;;;;;5029501;28;20072;-54
2021/10/06 04:18:25;;;;;;;1.58;1.25;;;;;;;;;;5028594;28;20084;-54
2021/10/06 04:20:52;;;;;;;1.98;0.80;;;;;;;;;;5028500;28;20053;-53
2021/10/06 04:23:18;;;;;;;2.28;0.90;;;;;;;;;;5028678;28;20598;-54
2021/10/06 04:25:45;;;;;;;2.15;0.90;;;;;;;;;;5029081;28;20038;-53
2021/10/06 04:28:12;;;;;;;4.97;1.23;;;;;;;;;;5013544;28;20096;-54
2021/10/06 04:30:38;;;;;;;4.88;1.60;;;;;;;;;;5021954;28;20569;-53
2021/10/06 04:33:05;;;;;;;2.40;0.85;;;;;;;;;;5027815;28;20453;-54
2021/10/06 04:35:32;;;;;;;3.22;1.08;;;;;;;;;;5029262;28;20041;-55
2021/10/06 04:37:58;;;;;;;1.17;1.08;;;;;;;;;;5027801;28;20072;-54
2021/10/06 04:40:25;;;;;;;5.35;0.95;;;;;;;;;;5020722;28;20072;-55
2021/10/06 04:42:52;;;;;;;2.15;1.08;;;;;;;;;;5027239;28;20091;-53
2021/10/06 04:45:19;;;;;;;2.97;0.90;;;;;;;;;;5027545;28;20048;-53
2021/10/06 04:47:46;;;;;;;4.25;1.00;;;;;;;;;;5028036;28;20149;-53
2021/10/06 04:50:12;;;;;;;5.47;1.20;;;;;;;;;;5027614;28;20065;-52
2021/10/06 04:52:39;;;;;;;3.58;1.02;;;;;;;;;;5026522;28;20454;-55
2021/10/06 04:55:06;;;;;;;6.25;2.97;;;;;;;;;;5026942;28;20123;-55
2021/10/06 04:57:33;;;;;;;1.63;0.90;;;;;;;;;;5026070;28;20046;-54
2021/10/06 05:00:00;;;;;;;3.72;0.90;;;;;;;;;;5028885;28;20050;-55
2021/10/06 05:02:26;;;;;;;3.15;0.90;;;;;;;;;;5027256;28;20563;-53
2021/10/06 05:04:53;;;;;;;2.85;1.02;;;;;;;;;;5027329;28;20038;-54
2021/10/06 05:07:20;;;;;;;5.70;1.00;;;;;;;;;;5021623;28;20403;-55
2021/10/06 05:09:47;;;;;;;2.55;1.00;;;;;;;;;;5021249;28;20095;-53
2021/10/06 05:12:13;;;;;;;4.05;1.00;;;;;;;;;;5020657;28;20037;-53
2021/10/06 05:14:40;;;;;;;2.80;1.10;;;;;;;;;;5027293;28;20103;-54
2021/10/06 05:17:07;;;;;;;2.80;1.42;;;;;;;;;;5027645;28;20482;-54
2021/10/06 05:19:34;;;;;;;1.40;1.20;;;;;;;;;;5028285;28;20042;-53
2021/10/06 05:22:02;;;;;;;1.38;1.08;;;;;;;;;;5029600;28;20107;-54
2021/10/06 05:24:29;;;;;;;4.82;1.40;;;;;;;;;;5026825;28;20042;-56
2021/10/06 05:26:55;;;;;;;4.32;1.15;;;;;;;;;;5031033;28;20116;-57
2021/10/06 05:29:22;;;;;;;4.05;1.00;;;;;;;;;;5029923;28;20033;-56
2021/10/06 05:31:49;;;;;;;3.20;0.93;;;;;;;;;;5030797;28;20053;-56
2021/10/06 05:34:16;;;;;;;4.60;1.17;;;;;;;;;;5032100;28;20091;-57
2021/10/06 05:36:42;;;;;;;2.80;0.85;;;;;;;;;;5014515;28;20390;-56
2021/10/06 05:39:09;;;;;;;2.38;1.17;;;;;;;;;;5030178;28;20128;-57
2021/10/06 05:41:36;;;;;;;2.13;1.10;;;;;;;;;;5028276;28;20393;-56
2021/10/06 05:44:03;;;;;;;3.10;0.90;;;;;;;;;;5031108;28;20069;-55
2021/10/06 05:46:31;;;;;;;5.60;1.10;;;;;;;;;;5031498;28;20576;-56
2021/10/06 05:48:58;;;;;;;1.40;0.95;;;;;;;;;;5025196;28;20041;-55
2021/10/06 05:51:25;;;;;;;8.75;1.13;;;;;;;;;;5024441;28;20501;-55
2021/10/06 05:53:51;;;;;;;1.73;1.10;;;;;;;;;;5022880;28;20053;-55
2021/10/06 05:56:18;;;;;;;3.40;0.98;;;;;;;;;;5030389;28;20037;-56
2021/10/06 05:58:46;;;;;;;7.03;1.73;;;;;;;;;;5029816;28;20561;-57
2021/10/06 06:01:13;;;;;;;4.40;1.00;;;;;;;;;;5032341;28;20068;-56
2021/10/06 06:03:40;;;;;;;3.20;0.90;;;;;;;;;;5030367;28;20497;-56
2021/10/06 06:06:09;;;;;;;5.35;1.00;;;;;;;;;;5029528;28;20124;-56
2021/10/06 06:08:36;;;;;;;1.90;1.00;;;;;;;;;;5031704;28;20140;-56
2021/10/06 06:11:03;;;;;;;4.75;1.00;;;;;;;;;;5029511;28;20460;-57
2021/10/06 06:13:29;;;;;;;2.75;1.17;;;;;;;;;;5030182;28;20043;-57
2021/10/06 06:15:56;;;;;;;2.58;0.88;;;;;;;;;;5020493;28;20085;-57
2021/10/06 06:18:23;;;;;;;5.60;0.90;;;;;;;;;;5020796;28;20646;-57
2021/10/06 06:20:49;;;;;;;1.65;1.48;;;;;;;;;;5031035;28;20438;-56
2021/10/06 06:23:16;;;;;;;1.67;0.88;;;;;;;;;;5026020;28;20450;-56
2021/10/06 06:25:43;;;;;;;1.95;0.82;;;;;;;;;;5014195;28;20041;-56
2021/10/06 06:28:10;;;;;;;4.75;0.90;;;;;;;;;;5026889;28;20429;-57
2021/10/06 06:30:37;;;;;;;1.92;0.90;;;;;;;;;;5027189;28;20053;-57
2021/10/06 06:33:04;;;;;;;1.88;0.80;;;;;;;;;;5014015;28;20092;-57
2021/10/06 06:35:30;;;;;;;1.50;0.80;;;;;;;;;;5024398;28;20410;-58
2021/10/06 06:37:57;;;;;;;4.70;1.20;;;;;;;;;;5018569;28;20049;-58
2021/10/06 06:40:24;;;;;;;6.57;1.15;;;;;;;;;;5028686;28;20473;-59
2021/10/06 06:42:51;;;;;;;3.70;0.85;;;;;;;;;;5021222;28;20049;-59
2021/10/06 06:45:17;;;;;;;4.03;1.20;;;;;;;;;;5030384;28;20042;-57
2021/10/06 06:47:44;;;;;;;4.28;1.10;;;;;;;;;;5029464;28;20045;-58
2021/10/06 06:50:12;;;;;;;3.80;0.90;;;;;;;;;;5029652;28;20090;-58
2021/10/06 06:52:39;;;;;;;1.45;0.90;;;;;;;;;;5030967;28;20124;-56
2021/10/06 06:55:06;;;;;;;2.42;0.98;;;;;;;;;;5028246;28;20048;-57
2021/10/06 06:57:32;;;;;;;4.15;1.10;;;;;;;;;;5022363;28;20132;-57
2021/10/06 06:59:59;;;;;;;2.58;1.30;;;;;;;;;;5028687;28;20045;-57
2021/10/06 07:02:26;;;;;;;3.58;1.67;;;;;;;;;;5028013;28;20045;-59
2021/10/06 07:04:53;;;;;;;2.70;1.20;;;;;;;;;;5029650;28;20080;-58
2021/10/06 07:07:19;;;;;;;5.20;0.98;;;;;;;;;;5027184;28;20116;-58
2021/10/06 07:09:50;;;;;;;2.65;1.13;;;;;;;;;;5012909;28;20084;-59
2021/10/06 07:12:18;;;;;;;4.97;1.55;;;;;;;;;;5022350;28;20077;-59
2021/10/06 07:14:44;;;;;;;0.98;0.90;;;;;;;;;;5028469;28;20037;-60
2021/10/06 07:17:11;;;;;;;5.63;1.27;;;;;;;;;;5029573;28;20041;-59
2021/10/06 07:19:38;;;;;;;2.08;0.90;;;;;;;;;;5026319;28;20067;-59
2021/10/06 07:22:05;;;;;;;3.08;0.90;;;;;;;;;;5030603;28;20791;-59
2021/10/06 07:24:32;;;;;;;1.85;0.90;;;;;;;;;;5029838;28;20068;-59
2021/10/06 07:26:59;;;;;;;3.67;1.35;;;;;;;;;;5026811;28;20083;-59
2021/10/06 07:29:26;;;;;;;2.45;0.80;;;;;;;;;;5025002;28;20065;-59
2021/10/06 07:31:53;;;;;;;1.52;1.05;;;;;;;;;;5026605;28;20037;-59
2021/10/06 07:34:19;;;;;;;1.92;0.90;;;;;;;;;;5028756;28;20053;-59
2021/10/06 07:36:46;;;;;;;3.83;1.10;;;;;;;;;;5018935;28;20070;-60
2021/10/06 07:39:13;;;;;;;6.80;0.90;;;;;;;;;;5022149;28;20056;-60
2021/10/06 07:41:40;;;;;;;1.60;1.05;;;;;;;;;;5028079;28;20081;-60
2021/10/06 07:44:06;;;;;;;4.47;0.93;;;;;;;;;;4925639;28;41192;-59
2021/10/06 07:46:33;;;;;;;1.77;0.90;;;;;;;;;;4975359;28;20120;-59
2021/10/06 07:48:59;;;;;;;6.75;1.17;;;;;;;;;;4998990;28;20100;-59
2021/10/06 07:51:26;;;;;;;1.50;1.13;;;;;;;;;;4987908;28;20046;-60
2021/10/06 07:53:53;;;;;;;4.60;1.10;;;;;;;;;;4973315;28;20117;-59
2021/10/06 07:56:20;;;;;;;3.85;1.38;;;;;;;;;;4984109;28;20035;-60
2021/10/06 07:58:47;;;;;;;2.75;1.00;;;;;;;;;;4977950;28;20454;-58
2021/10/06 08:01:14;;;;;;;3.92;1.10;;;;;;;;;;4989655;28;20046;-58
2021/10/06 08:03:51;;;;;;;2.55;1.00;;;;;;;;;;4987068;28;20038;-59
2021/10/06 08:06:18;;;;;;;2.38;1.10;;;;;;;;;;4971408;28;20113;-59
2021/10/06 08:08:45;;;;;;;2.50;0.98;;;;;;;;;;4989326;28;20118;-59
2021/10/06 08:11:12;;;;;;;4.72;1.35;;;;;;;;;;4988285;28;20351;-60
2021/10/06 08:13:38;;;;;;;1.90;1.77;;;;;;;;;;4989985;28;20078;-58
2021/10/06 08:16:05;;;;;;;2.88;1.08;;;;;;;;;;4985332;28;20525;-58
2021/10/06 08:18:32;;;;;;;6.30;1.38;;;;;;;;;;4973785;28;20051;-59
2021/10/06 08:20:59;;;;;;;2.30;1.35;;;;;;;;;;4988412;28;20542;-59
2021/10/06 08:23:27;;;;;;;6.50;1.20;;;;;;;;;;4988182;28;20110;-57
2021/10/06 08:25:54;;;;;;;3.47;1.00;;;;;;;;;;4987187;28;20503;-58
2021/10/06 08:28:20;;;;;;;1.48;1.00;;;;;;;;;;4988216;28;20034;-55
2021/10/06 08:30:47;;;;;;;2.40;1.20;;;;;;;;;;4989311;28;20040;-57
2021/10/06 08:33:14;;;;;;;3.15;1.00;;;;;;;;;;4979438;28;20070;-56
2021/10/06 08:35:41;;;;;;;2.30;1.10;;;;;;;;;;4981193;28;20050;-57
2021/10/06 08:38:08;;;;;;;3.50;1.08;;;;;;;;;;4989912;28;20426;-56
2021/10/06 08:40:36;;;;;;;3.90;0.90;;;;;;;;;;4986896;28;20521;-58
2021/10/06 08:43:03;;;;;;;1.65;0.90;;;;;;;;;;4981187;28;20038;-58
2021/10/06 08:45:30;;;;;;;2.72;0.90;;;;;;;;;;4983435;28;20042;-57
2021/10/06 08:47:57;;;;;;;3.05;1.10;;;;;;;;;;4981299;28;20570;-55
2021/10/06 08:50:24;;;;;;;2.95;1.23;;;;;;;;;;4988603;28;20042;-58
2021/10/06 08:52:51;;;;;;;4.38;1.00;;;;;;;;;;4987911;28;20050;-57
2021/10/06 08:55:18;;;;;;;2.70;0.90;;;;;;;;;;4990720;28;20521;-58
2021/10/06 08:57:45;;;;;;;4.00;1.00;;;;;;;;;;4993193;28;20606;-57
2021/10/06 09:00:12;;;;;;;8.48;2.88;;;;;;;;;;4993623;28;20042;-57
2021/10/06 09:02:40;;;;;;;3.00;0.80;;;;;;;;;;4978554;28;20058;-56
2021/10/06 09:05:08;;;;;;;1.40;0.80;;;;;;;;;;4993214;28;20058;-56
2021/10/06 09:07:55;;;;;;;0.70;0.70;;;;;;;;;;4991900;28;20045;-57
2021/10/06 09:10:23;;;;;;;1.15;0.80;;;;;;;;;;4975776;28;20047;-57
2021/10/06 09:13:08;;;;;;;2.22;0.80;;;;;;;;;;4992289;28;20046;-55
2021/10/06 09:15:50;;;;;;;4.85;0.98;;;;;;;;;;4992540;28;20034;-56
2021/10/06 09:18:21;;;;;;;1.02;0.70;;;;;;;;;;4990277;28;20061;-57
2021/10/06 09:20:48;;;;;;;0.88;0.70;;;;;;;;;;5017481;28;20066;-57
2021/10/06 09:23:16;;;;;;;1.77;0.80;;;;;;;;;;4976820;28;20061;-57
2021/10/06 09:25:49;;;;;;;0.70;0.70;;;;;;;;;;4992837;28;20404;-55
2021/10/06 09:28:19;;;;;;;1.65;0.68;;;;;;;;;;4987596;28;20058;-57
2021/10/06 09:30:46;;;;;;;3.85;1.10;;;;;;;;;;4981796;28;20053;-57
2021/10/06 09:33:12;;;;;;;1.02;0.70;;;;;;;;;;4991401;28;20038;-55
2021/10/06 09:35:39;;;;;;;2.72;0.75;;;;;;;;;;4990098;28;20069;-56
2021/10/06 09:38:06;;;;;;;2.60;1.00;;;;;;;;;;4979899;28;20058;-57
2021/10/06 09:40:33;;;;;;;1.95;0.63;;;;;;;;;;4986418;28;20042;-55
2021/10/06 09:43:00;;;;;;;2.50;0.63;;;;;;;;;;4990014;28;20050;-57
2021/10/06 09:45:28;;;;;;;0.88;0.60;;;;;;;;;;4984787;28;20039;-55
2021/10/06 09:48:03;;;;;;;1.20;0.60;;;;;;;;;;4979878;28;20431;-54
2021/10/06 09:50:31;;;;;;;0.95;0.60;;;;;;;;;;4976252;28;20054;-57
2021/10/06 09:53:04;;;;;;;1.45;0.75;;;;;;;;;;4987380;28;20530;-56
2021/10/06 09:55:30;;;;;;;;;;;;;;;;;;4978814;28;20524;-57
2021/10/06 09:57:59;;;;;;;2.58;0.55;;;;;;;;;;4981896;28;20358;-56
2021/10/06 10:00:26;;;;;;;1.95;0.60;;;;;;;;;;4989764;28;20041;-56
2021/10/06 10:02:53;;;;;;;1.65;0.50;;;;;;;;;;4986937;28;20042;-55
2021/10/06 10:05:20;;;;;;;1.63;0.60;;;;;;;;;;4990230;28;20517;-57
2021/10/06 10:07:49;;;;;;;1.52;0.60;;;;;;;;;;4991674;28;20048;-56
2021/10/06 10:10:16;;;;;;;0.57;0.57;;;;;;;;;;4992100;28;20042;-54
2021/10/06 10:12:42;;;;;;;0.70;0.50;;;;;;;;;;4991259;28;20092;-56
2021/10/06 10:15:09;;;;;;;1.10;0.60;;;;;;;;;;4981734;28;20069;-55
2021/10/06 10:17:37;;;;;;;1.45;0.60;;;;;;;;;;4989125;28;20089;-56
2021/10/06 10:20:10;;;;;;;0.93;0.63;;;;;;;;;;4988348;28;20050;-55
2021/10/06 10:22:39;;;;;;;0.50;0.50;;;;;;;;;;4991661;28;20104;-56
2021/10/06 10:25:15;;;;;;;0.52;0.52;;;;;;;;;;4989642;28;20042;-56
2021/10/06 10:28:01;;;;;;;1.58;0.55;;;;;;;;;;4988126;28;20565;-55
2021/10/06 10:30:29;;;;;;;2.25;0.50;;;;;;;;;;4982116;28;20070;-54
2021/10/06 10:33:06;;;;;;;2.63;0.73;;;;;;;;;;4989857;28;20034;-56
2021/10/06 10:39:26;;;;;;;2.22;0.70;;;;;;;;;;5043378;28;20567;-55
2021/10/06 10:41:57;;;;;;;1.83;0.60;;;;;;;;;;5025451;28;20092;-57
2021/10/06 10:50:58;;;;;;;0.95;0.60;;;;;;;;;;5038467;28;20045;-56
2021/10/06 10:53:44;;;;;;;0.67;0.57;;;;;;;;;;5026707;28;20065;-56
2021/10/06 10:56:11;;;;;;;0.50;0.50;;;;;;;;;;5027564;28;20053;-55
2021/10/06 10:58:40;;;;;;;1.77;0.50;;;;;;;;;;5024095;28;20054;-56
2021/10/06 11:01:12;;;;;;;0.95;0.50;;;;;;;;;;5023055;28;20095;-56
2021/10/06 11:03:58;;;;;;;0.50;0.50;;;;;;;;;;5033872;28;20087;-56
2021/10/06 11:06:41;;;;;;;1.33;0.50;;;;;;;;;;5036394;28;20287;-56
2021/10/06 11:09:27;;;;;;;1.00;0.50;;;;;;;;;;5018862;28;20414;-56
2021/10/06 11:11:54;;;;;;;0.60;0.50;;;;;;;;;;4987773;28;20109;-56
2021/10/06 11:14:21;;;;;;;3.25;0.60;;;;;;;;;;4990435;28;20073;-57
2021/10/06 11:17:07;;;;;;;0.95;0.55;;;;;;;;;;4988874;28;20069;-57
2021/10/06 11:20:00;;;;;;;1.65;0.60;;;;;;;;;;4989785;28;20038;-56
2021/10/06 11:22:29;;;;;;;2.95;0.60;;;;;;;;;;4986491;28;20558;-55
2021/10/06 11:24:58;;;;;;;1.65;0.60;;;;;;;;;;4988939;28;20372;-56
2021/10/06 11:27:26;;;;;;;1.67;0.73;;;;;;;;;;4990807;28;20526;-56
2021/10/06 11:29:55;;;;;;;2.05;0.60;;;;;;;;;;4984514;28;20038;-56
2021/10/06 11:32:21;;;;;;;3.40;0.60;;;;;;;;;;4983166;28;20038;-56
2021/10/06 11:34:53;;;;;;;0.70;0.50;;;;;;;;;;4981610;28;20149;-56
2021/10/06 11:37:21;;;;;;;1.77;0.60;;;;;;;;;;4980168;28;20042;-54
2021/10/06 11:39:48;;;;;;;0.70;0.60;;;;;;;;;;4990307;28;20049;-56
2021/10/06 11:42:16;;;;;;;0.70;0.50;;;;;;;;;;4986414;28;20136;-54
2021/10/06 11:44:43;;;;;;;1.55;0.55;;;;;;;;;;4988176;28;20074;-55
2021/10/06 11:47:12;;;;;;;4.10;0.60;;;;;;;;;;4983056;28;20047;-54
2021/10/06 11:49:44;;;;;;;4.50;0.53;;;;;;;;;;4984358;28;20048;-56
2021/10/06 11:52:12;;;;;;;1.65;0.50;;;;;;;;;;4984092;28;20050;-56
2021/10/06 11:54:39;;;;;;;2.17;0.60;;;;;;;;;;4988600;28;20117;-53
2021/10/06 11:57:07;;;;;;;1.33;0.60;;;;;;;;;;4987897;28;20074;-57
2021/10/06 11:59:34;;;;;;;2.15;0.50;;;;;;;;;;4989976;28;20482;-54
2021/10/06 12:02:01;;;;;;;3.47;0.60;;;;;;;;;;4989257;28;20129;-55
2021/10/06 12:04:32;;;;;;;0.75;0.60;;;;;;;;;;4971157;28;20123;-56
2021/10/06 12:07:09;;;;;;;0.80;0.50;;;;;;;;;;4980837;28;20049;-56
2021/10/06 12:09:36;;;;;;;1.27;0.50;;;;;;;;;;4980482;28;20105;-54
2021/10/06 12:12:12;;;;;;;1.25;0.50;;;;;;;;;;4989737;28;20093;-56
2021/10/06 12:14:43;;;;;;;3.00;0.50;;;;;;;;;;4990200;28;20042;-55
2021/10/06 12:17:14;;;;;;;0.70;0.60;;;;;;;;;;4981612;28;20073;-55
2021/10/06 12:19:51;;;;;;;1.60;0.50;;;;;;;;;;4985488;28;20096;-55
2021/10/06 12:22:18;;;;;;;2.70;0.50;;;;;;;;;;4989080;28;20081;-55
2021/10/06 12:24:45;;;;;;;0.98;0.60;;;;;;;;;;4989281;28;20046;-55
2021/10/06 12:27:28;;;;;;;2.25;0.50;;;;;;;;;;4988562;28;20126;-56
2021/10/06 12:30:04;;;;;;;1.27;0.60;;;;;;;;;;4990605;28;20422;-55
2021/10/06 12:32:31;;;;;;;2.25;1.08;;;;;;;;;;4977500;28;20094;-54
2021/10/06 12:35:18;;;;;;;1.90;0.60;;;;;;;;;;4987305;28;20089;-56
2021/10/06 12:37:53;;;;;;;0.73;0.60;;;;;;;;;;4985908;28;20383;-54
2021/10/06 12:40:50;;;;;;;3.97;0.60;;;;;;;;;;4982618;28;20045;-56
2021/10/06 12:43:16;;;;;;;1.70;0.65;;;;;;;;;;4970277;28;20554;-48
2021/10/06 12:46:02;;;;;;;2.72;0.63;;;;;;;;;;4969663;28;20046;-44
2021/10/06 12:48:38;;;;;;;0.60;0.52;;;;;;;;;;4971693;28;20094;-44
2021/10/06 12:51:06;;;;;;;1.98;0.50;;;;;;;;;;4969334;28;20045;-45
2021/10/06 12:53:33;;;;;;;2.20;0.60;;;;;;;;;;4970013;28;20079;-45
2021/10/06 12:56:00;;;;;;;1.25;0.60;;;;;;;;;;4971175;28;20078;-44
2021/10/06 12:58:27;;;;;;;1.05;0.60;;;;;;;;;;4969349;28;20113;-45
2021/10/06 13:00:54;;;;;;;1.17;0.60;;;;;;;;;;4969695;28;20105;-45
2021/10/06 13:03:21;;;;;;;2.20;0.60;;;;;;;;;;4969349;28;20102;-45
2021/10/06 13:05:48;;;;;;;0.80;0.50;;;;;;;;;;4970348;28;20051;-46
2021/10/06 13:08:15;;;;;;;1.33;0.60;;;;;;;;;;4970773;28;20106;-45
2021/10/06 13:10:43;;;;;;;3.60;0.50;;;;;;;;;;4969978;28;20077;-46
2021/10/06 13:13:10;;;;;;;3.97;0.73;;;;;;;;;;4970766;28;20792;-47
2021/10/06 13:15:37;;;;;;;0.50;0.50;;;;;;;;;;4969383;28;20047;-43
2021/10/06 13:18:04;;;;;;;1.67;0.60;;;;;;;;;;4969650;28;20097;-44
2021/10/06 13:20:30;;;;;;;4.60;0.93;;;;;;;;;;4976475;28;20117;-45
2021/10/06 13:22:57;;;;;;;2.05;0.60;;;;;;;;;;4989156;28;20109;-45
2021/10/06 13:25:24;;;;;;;4.75;0.70;;;;;;;;;;4991889;28;20062;-45
2021/10/06 13:27:51;;;;;;;3.85;0.70;;;;;;;;;;4983683;28;20039;-47
2021/10/06 13:30:18;;;;;;;2.05;0.60;;;;;;;;;;4982524;28;20471;-44
2021/10/06 13:32:45;;;;;;;2.10;0.63;;;;;;;;;;4984312;28;20049;-44
2021/10/06 13:35:12;;;;;;;6.38;0.70;;;;;;;;;;4990427;28;20599;-46
2021/10/06 13:37:39;;;;;;;2.70;1.52;;;;;;;;;;4991397;28;20425;-46
2021/10/06 13:40:06;;;;;;;8.98;0.68;;;;;;;;;;4990711;28;20037;-46
2021/10/06 13:42:32;;;;;;;2.20;1.00;;;;;;;;;;4987817;28;20089;-44
2021/10/06 13:44:59;;;;;;;4.55;0.70;;;;;;;;;;4989484;28;20542;-44
2021/10/06 13:47:26;;;;;;;2.45;0.85;;;;;;;;;;4986044;28;20043;-44
2021/10/06 13:49:53;;;;;;;1.88;0.80;;;;;;;;;;4990175;28;20125;-43
2021/10/06 13:52:20;;;;;;;3.70;0.73;;;;;;;;;;4992156;28;20129;-44
2021/10/06 13:54:47;;;;;;;0.70;0.70;;;;;;;;;;4990063;28;20048;-45
2021/10/06 13:57:14;;;;;;;5.57;1.08;;;;;;;;;;4992058;28;20637;-45
2021/10/06 13:59:41;;;;;;;2.25;0.70;;;;;;;;;;4989797;28;20558;-44
2021/10/06 14:02:08;;;;;;;1.85;0.70;;;;;;;;;;4991437;28;20046;-46
2021/10/06 14:04:35;;;;;;;4.72;0.70;;;;;;;;;;4984711;28;20039;-45
2021/10/06 14:07:02;;;;;;;1.80;0.70;;;;;;;;;;4984910;28;20114;-44
2021/10/06 14:09:29;;;;;;;3.17;0.70;;;;;;;;;;4974613;28;20042;-44
2021/10/06 14:11:55;;;;;;;3.20;0.70;;;;;;;;;;4989637;28;20066;-43
2021/10/06 14:14:22;;;;;;;2.90;0.70;;;;;;;;;;4989289;28;20030;-45
2021/10/06 14:16:49;;;;;;;2.55;0.90;;;;;;;;;;4978888;28;20039;-44
2021/10/06 14:19:16;;;;;;;1.23;0.70;;;;;;;;;;4984539;28;20046;-44
2021/10/06 14:21:42;;;;;;;1.40;0.70;;;;;;;;;;4978720;28;20084;-47
2021/10/06 14:24:09;;;;;;;2.95;0.95;;;;;;;;;;4991353;28;20046;-45
2021/10/06 14:26:36;;;;;;;3.63;0.70;;;;;;;;;;4991060;28;20104;-43
2021/10/06 14:29:03;;;;;;;4.13;0.80;;;;;;;;;;4977906;28;20038;-44
2021/10/06 14:31:30;;;;;;;1.70;0.70;;;;;;;;;;4987428;28;20043;-44
2021/10/06 14:33:58;;;;;;;3.17;0.70;;;;;;;;;;4990272;28;20035;-48
2021/10/06 14:36:26;;;;;;;1.13;1.00;;;;;;;;;;4991093;28;20030;-44
2021/10/06 14:38:53;;;;;;;4.97;0.70;;;;;;;;;;4988799;28;20053;-43
2021/10/06 14:41:20;;;;;;;5.20;0.80;;;;;;;;;;4991153;28;20093;-43
2021/10/06 14:43:47;;;;;;;0.70;0.70;;;;;;;;;;4985250;28;20042;-43
2021/10/06 14:46:14;;;;;;;1.15;0.60;;;;;;;;;;4976911;28;20556;-45
2021/10/06 14:48:41;;;;;;;2.80;0.70;;;;;;;;;;4981234;28;20079;-45
2021/10/06 14:51:08;;;;;;;3.33;0.80;;;;;;;;;;4984215;28;20030;-44
2021/10/06 14:53:35;;;;;;;1.88;0.70;;;;;;;;;;4991539;28;20034;-45
2021/10/06 14:56:02;;;;;;;3.38;1.08;;;;;;;;;;4988316;28;20038;-43
2021/10/06 14:58:29;;;;;;;2.70;0.82;;;;;;;;;;4989014;28;20414;-46